Time;durP1;ratioP1;P1;durP2;ratioP2;P2;SDS_P1;SDS_P2;PMS_P1;PMS_P2;Temp;Humidity;BMP_temperature;BMP_pressure;BME280_temperature;BME280_humidity;BME280_pressure;Samples;Min_cycle;Max_cycle;Signal;HPM_P1;HPM_P2
2022/09/02 00:01:15;;;;;;;;;;;21.00;50.40;;;;;;484938;246;1212;-73
2022/09/02 00:03:16;;;;;;;;;;;20.90;50.40;;;;;;484945;246;2163;-73
2022/09/02 00:05:19;;;;;;;;;;;20.90;50.50;;;;;;484958;245;1156;-73
2022/09/02 00:07:19;;;;;;;;;;;21.00;50.40;;;;;;484865;246;1393;-73
2022/09/02 00:09:20;;;;;;;;;;;21.00;50.40;;;;;;484979;246;1101;-73
2022/09/02 00:11:21;;;;;;;;;;;20.90;50.40;;;;;;484993;246;1223;-73
2022/09/02 00:13:23;;;;;;;;;;;20.90;50.60;;;;;;484947;246;1141;-73
2022/09/02 00:15:24;;;;;;;;;;;21.00;50.30;;;;;;484985;246;1118;-73
2022/09/02 00:17:25;;;;;;;;;;;21.10;50.20;;;;;;484954;246;1104;-73
2022/09/02 00:19:27;;;;;;;;;;;21.00;50.20;;;;;;484978;246;1324;-74
2022/09/02 00:21:28;;;;;;;;;;;21.00;50.40;;;;;;484919;246;1215;-73
2022/09/02 00:23:29;;;;;;;;;;;21.00;50.20;;;;;;485198;245;2161;-73
2022/09/02 00:25:31;;;;;;;;;;;21.10;50.20;;;;;;484953;246;1248;-73
2022/09/02 00:27:32;;;;;;;;;;;21.10;50.10;;;;;;485021;246;1192;-73
2022/09/02 00:29:33;;;;;;;;;;;21.00;50.20;;;;;;484960;246;1112;-73
2022/09/02 00:31:35;;;;;;;;;;;21.00;50.40;;;;;;484969;246;1128;-73
2022/09/02 00:33:36;;;;;;;;;;;20.90;50.40;;;;;;484957;246;1146;-73
2022/09/02 00:35:37;;;;;;;;;;;20.90;50.50;;;;;;484938;246;1315;-73
2022/09/02 00:37:39;;;;;;;;;;;20.90;50.50;;;;;;484984;246;1110;-73
2022/09/02 00:39:40;;;;;;;;;;;20.90;50.50;;;;;;485027;246;1064;-73
2022/09/02 00:41:41;;;;;;;;;;;20.90;50.40;;;;;;484981;246;1146;-73
2022/09/02 00:43:43;;;;;;;;;;;21.00;50.30;;;;;;485000;246;2183;-73
2022/09/02 00:45:44;;;;;;;;;;;21.00;50.20;;;;;;484957;246;1129;-73
2022/09/02 00:47:46;;;;;;;;;;;20.90;50.30;;;;;;485211;246;1311;-73
2022/09/02 00:49:47;;;;;;;;;;;20.90;50.50;;;;;;484954;245;1184;-73
2022/09/02 00:51:48;;;;;;;;;;;20.90;50.50;;;;;;484937;245;1204;-73
2022/09/02 00:53:49;;;;;;;;;;;20.90;50.40;;;;;;484955;245;1261;-73
2022/09/02 00:55:51;;;;;;;;;;;21.00;50.20;;;;;;484729;246;1118;-73
2022/09/02 00:57:52;;;;;;;;;;;21.00;50.20;;;;;;484693;246;1088;-73
2022/09/02 00:59:53;;;;;;;;;;;21.10;50.00;;;;;;484512;246;1274;-73
2022/09/02 01:01:55;;;;;;;;;;;21.00;49.90;;;;;;484603;246;1149;-73
2022/09/02 01:03:56;;;;;;;;;;;21.00;50.10;;;;;;484963;246;2198;-73
2022/09/02 01:05:58;;;;;;;;;;;21.00;50.00;;;;;;484881;246;1138;-74
2022/09/02 01:07:59;;;;;;;;;;;20.90;50.10;;;;;;484919;246;1210;-74
2022/09/02 01:10:00;;;;;;;;;;;21.00;50.00;;;;;;484940;246;1188;-73
2022/09/02 01:12:03;;;;;;;;;;;21.00;50.20;;;;;;484907;246;1181;-73
2022/09/02 01:14:05;;;;;;;;;;;20.90;50.30;;;;;;484940;246;1292;-73
2022/09/02 01:16:05;;;;;;;;;;;20.90;50.30;;;;;;484664;246;1513;-73
2022/09/02 01:18:06;;;;;;;;;;;20.90;50.40;;;;;;484882;246;1265;-73
2022/09/02 01:20:10;;;;;;;;;;;20.80;50.50;;;;;;484915;244;1230;-73
2022/09/02 01:22:09;;;;;;;;;;;20.90;50.40;;;;;;484751;246;1526;-73
2022/09/02 01:24:10;;;;;;;;;;;20.80;50.30;;;;;;484937;246;2183;-73
2022/09/02 01:26:12;;;;;;;;;;;20.80;50.40;;;;;;484930;246;1171;-73
2022/09/02 01:28:13;;;;;;;;;;;21.00;50.20;;;;;;484908;246;1222;-73
2022/09/02 01:30:14;;;;;;;;;;;21.00;50.20;;;;;;484951;246;1124;-73
2022/09/02 01:32:16;;;;;;;;;;;20.90;50.20;;;;;;484997;246;1113;-73
2022/09/02 01:34:17;;;;;;;;;;;20.90;50.40;;;;;;484914;246;1185;-73
2022/09/02 01:36:18;;;;;;;;;;;20.90;50.30;;;;;;484893;246;1125;-73
2022/09/02 01:38:19;;;;;;;;;;;20.90;50.20;;;;;;484952;246;1165;-73
2022/09/02 01:40:21;;;;;;;;;;;20.90;50.30;;;;;;484931;246;1112;-73
2022/09/02 01:42:23;;;;;;;;;;;20.80;50.40;;;;;;484946;246;1267;-73
2022/09/02 01:44:26;;;;;;;;;;;20.70;50.60;;;;;;484903;246;2195;-73
2022/09/02 01:46:25;;;;;;;;;;;20.80;50.60;;;;;;484781;246;1473;-73
2022/09/02 01:48:26;;;;;;;;;;;20.90;50.50;;;;;;484580;246;1152;-73
2022/09/02 01:50:28;;;;;;;;;;;20.90;50.30;;;;;;484877;246;1306;-73
2022/09/02 01:52:29;;;;;;;;;;;20.80;50.40;;;;;;484815;246;1169;-73
2022/09/02 01:54:30;;;;;;;;;;;20.90;50.40;;;;;;484996;246;1471;-73
2022/09/02 01:56:32;;;;;;;;;;;20.90;50.00;;;;;;484870;246;1241;-73
2022/09/02 01:58:33;;;;;;;;;;;21.00;50.00;;;;;;484941;246;1158;-73
2022/09/02 02:00:34;;;;;;;;;;;21.00;50.00;;;;;;484931;245;1185;-73
2022/09/02 02:02:36;;;;;;;;;;;21.00;50.00;;;;;;485144;246;1166;-73
2022/09/02 02:04:37;;;;;;;;;;;21.00;49.90;;;;;;484867;246;2203;-73
2022/09/02 02:06:39;;;;;;;;;;;20.90;50.00;;;;;;484898;246;1130;-73
2022/09/02 02:08:40;;;;;;;;;;;20.80;50.10;;;;;;484956;246;1144;-73
2022/09/02 02:10:42;;;;;;;;;;;20.70;50.50;;;;;;484978;245;1207;-73
2022/09/02 02:12:43;;;;;;;;;;;20.70;50.50;;;;;;484920;246;1158;-73
2022/09/02 02:14:44;;;;;;;;;;;20.80;50.50;;;;;;484533;245;1255;-74
2022/09/02 02:16:46;;;;;;;;;;;20.80;50.40;;;;;;485098;246;1274;-73
2022/09/02 02:18:47;;;;;;;;;;;20.90;50.20;;;;;;484919;246;1475;-73
2022/09/02 02:20:48;;;;;;;;;;;20.90;50.10;;;;;;484588;245;1176;-73
2022/09/02 02:22:50;;;;;;;;;;;20.80;50.30;;;;;;484971;246;1202;-73
2022/09/02 02:24:51;;;;;;;;;;;20.80;50.30;;;;;;484948;246;2235;-75
2022/09/02 02:26:52;;;;;;;;;;;20.70;50.40;;;;;;484734;245;1144;-74
2022/09/02 02:28:54;;;;;;;;;;;20.80;50.40;;;;;;484961;246;1083;-73
2022/09/02 02:30:55;;;;;;;;;;;20.80;50.20;;;;;;484673;245;1148;-73
2022/09/02 02:32:56;;;;;;;;;;;20.80;50.30;;;;;;484627;245;1176;-74
2022/09/02 02:34:58;;;;;;;;;;;20.90;50.10;;;;;;484125;245;1165;-73
2022/09/02 02:36:59;;;;;;;;;;;20.90;50.10;;;;;;484096;246;1244;-73
2022/09/02 02:39:01;;;;;;;;;;;20.80;50.20;;;;;;484451;246;1131;-73
2022/09/02 02:41:04;;;;;;;;;;;20.80;50.30;;;;;;484063;245;1178;-73
2022/09/02 02:43:04;;;;;;;;;;;20.70;50.30;;;;;;484435;246;1578;-73
2022/09/02 02:45:07;;;;;;;;;;;20.80;50.50;;;;;;485114;246;2179;-73
2022/09/02 02:47:07;;;;;;;;;;;20.80;50.30;;;;;;485088;246;1476;-73
2022/09/02 02:49:08;;;;;;;;;;;20.80;50.40;;;;;;484853;246;1190;-73
2022/09/02 02:51:09;;;;;;;;;;;20.80;50.30;;;;;;484900;246;1362;-73
2022/09/02 02:53:11;;;;;;;;;;;20.90;50.20;;;;;;485145;246;1120;-73
2022/09/02 02:55:12;;;;;;;;;;;20.80;50.30;;;;;;484977;246;1046;-73
2022/09/02 02:57:14;;;;;;;;;;;20.90;50.10;;;;;;485118;246;1299;-73
2022/09/02 02:59:15;;;;;;;;;;;20.90;50.10;;;;;;485011;245;1027;-73
2022/09/02 03:01:16;;;;;;;;;;;20.90;49.90;;;;;;485381;245;1110;-73
2022/09/02 03:03:18;;;;;;;;;;;21.00;49.90;;;;;;484977;245;1213;-73
2022/09/02 03:05:19;;;;;;;;;;;21.00;49.90;;;;;;484906;246;2184;-73
2022/09/02 03:07:21;;;;;;;;;;;20.90;50.10;;;;;;484915;246;1199;-73
2022/09/02 03:09:22;;;;;;;;;;;20.80;50.20;;;;;;485059;246;1177;-73
2022/09/02 03:11:27;;;;;;;;;;;20.80;50.20;;;;;;484935;246;1211;-73
2022/09/02 03:13:25;;;;;;;;;;;20.70;50.40;;;;;;484700;246;1519;-73
2022/09/02 03:15:26;;;;;;;;;;;20.80;50.50;;;;;;484946;246;1233;-74
2022/09/02 03:17:27;;;;;;;;;;;20.80;50.40;;;;;;484932;246;1302;-73
2022/09/02 03:19:29;;;;;;;;;;;20.90;50.10;;;;;;484977;246;1350;-73
2022/09/02 03:21:30;;;;;;;;;;;20.90;50.00;;;;;;484920;245;1120;-73
2022/09/02 03:23:31;;;;;;;;;;;20.80;50.10;;;;;;485138;246;1231;-73
2022/09/02 03:25:33;;;;;;;;;;;20.70;50.20;;;;;;484920;246;2191;-73
2022/09/02 03:27:34;;;;;;;;;;;20.80;50.20;;;;;;484946;246;1214;-73
2022/09/02 03:29:35;;;;;;;;;;;20.80;50.30;;;;;;485023;246;1308;-73
2022/09/02 03:31:37;;;;;;;;;;;20.90;50.10;;;;;;484937;246;1228;-73
2022/09/02 03:33:38;;;;;;;;;;;20.90;50.10;;;;;;484936;246;1200;-73
2022/09/02 03:35:40;;;;;;;;;;;20.90;50.10;;;;;;485045;246;1121;-73
2022/09/02 03:37:41;;;;;;;;;;;21.00;49.90;;;;;;484926;246;1134;-73
2022/09/02 03:39:42;;;;;;;;;;;20.90;49.80;;;;;;485012;246;1145;-73
2022/09/02 03:41:44;;;;;;;;;;;20.90;50.00;;;;;;484933;246;1201;-73
2022/09/02 03:43:45;;;;;;;;;;;20.90;50.00;;;;;;484951;246;1133;-73
2022/09/02 03:45:46;;;;;;;;;;;20.80;50.20;;;;;;484893;246;2164;-73
2022/09/02 03:47:52;;;;;;;;;;;20.80;50.10;;;;;;485135;246;1206;-73
2022/09/02 03:49:51;;;;;;;;;;;20.70;50.30;;;;;;484421;244;1461;-73
2022/09/02 03:51:53;;;;;;;;;;;20.80;50.20;;;;;;485079;246;1151;-73
2022/09/02 03:53:54;;;;;;;;;;;20.80;50.00;;;;;;484869;246;1144;-73
2022/09/02 03:55:55;;;;;;;;;;;20.80;50.10;;;;;;484950;246;1203;-73
2022/09/02 03:57:57;;;;;;;;;;;20.80;50.20;;;;;;484836;246;1240;-73
2022/09/02 03:59:58;;;;;;;;;;;20.90;49.80;;;;;;484925;246;1178;-73
2022/09/02 04:02:00;;;;;;;;;;;20.80;49.80;;;;;;485012;246;1116;-73
2022/09/02 04:04:01;;;;;;;;;;;20.80;50.10;;;;;;484856;246;1346;-74
2022/09/02 04:06:02;;;;;;;;;;;20.80;50.20;;;;;;484858;246;2196;-73
2022/09/02 04:08:04;;;;;;;;;;;20.80;50.20;;;;;;484851;246;1162;-73
2022/09/02 04:10:07;;;;;;;;;;;20.70;50.20;;;;;;484888;246;1166;-73
2022/09/02 04:12:06;;;;;;;;;;;20.70;50.40;;;;;;484173;246;1483;-74
2022/09/02 04:14:07;;;;;;;;;;;20.70;50.20;;;;;;484919;246;1214;-74
2022/09/02 04:16:09;;;;;;;;;;;20.70;50.20;;;;;;484865;246;1246;-74
2022/09/02 04:18:10;;;;;;;;;;;20.70;50.20;;;;;;484830;246;1132;-74
2022/09/02 04:20:12;;;;;;;;;;;20.70;50.30;;;;;;484875;246;1113;-74
2022/09/02 04:22:13;;;;;;;;;;;20.70;50.40;;;;;;484815;246;1260;-74
2022/09/02 04:24:14;;;;;;;;;;;20.70;50.30;;;;;;484928;246;1101;-73
2022/09/02 04:26:15;;;;;;;;;;;20.80;50.10;;;;;;484813;246;2160;-73
2022/09/02 04:28:17;;;;;;;;;;;20.90;49.80;;;;;;485030;246;1104;-73
2022/09/02 04:30:19;;;;;;;;;;;20.90;49.70;;;;;;484894;246;1158;-73
2022/09/02 04:32:20;;;;;;;;;;;20.90;49.70;;;;;;484918;246;1428;-73
2022/09/02 04:34:21;;;;;;;;;;;20.80;49.80;;;;;;484707;246;1484;-73
2022/09/02 04:36:22;;;;;;;;;;;20.70;49.90;;;;;;484536;246;1129;-73
2022/09/02 04:38:23;;;;;;;;;;;20.70;50.20;;;;;;484672;246;1112;-73
2022/09/02 04:40:25;;;;;;;;;;;20.70;50.30;;;;;;484944;246;1175;-73
2022/09/02 04:42:26;;;;;;;;;;;20.70;50.30;;;;;;484861;246;1200;-73
2022/09/02 04:44:27;;;;;;;;;;;20.80;50.10;;;;;;484938;246;1173;-73
2022/09/02 04:46:29;;;;;;;;;;;20.80;50.00;;;;;;484928;246;2175;-73
2022/09/02 04:48:31;;;;;;;;;;;20.70;50.10;;;;;;485047;246;1142;-73
2022/09/02 04:50:31;;;;;;;;;;;20.70;50.10;;;;;;484885;246;1418;-73
2022/09/02 04:52:33;;;;;;;;;;;20.70;50.00;;;;;;484997;246;1218;-73
2022/09/02 04:54:34;;;;;;;;;;;20.70;50.20;;;;;;485232;246;1261;-73
2022/09/02 04:56:37;;;;;;;;;;;20.70;50.20;;;;;;485192;246;1331;-73
2022/09/02 04:58:37;;;;;;;;;;;20.70;50.30;;;;;;485205;245;1494;-73
2022/09/02 05:00:38;;;;;;;;;;;20.70;50.20;;;;;;484933;246;1144;-73
2022/09/02 05:02:40;;;;;;;;;;;20.70;50.30;;;;;;484897;246;1168;-73
2022/09/02 05:04:41;;;;;;;;;;;20.70;50.10;;;;;;484874;246;1160;-73
2022/09/02 05:06:42;;;;;;;;;;;20.80;50.00;;;;;;484930;246;2144;-73
2022/09/02 05:08:44;;;;;;;;;;;20.80;50.00;;;;;;484893;246;1177;-73
2022/09/02 05:10:49;;;;;;;;;;;20.70;50.00;;;;;;485019;246;1159;-73
2022/09/02 05:12:46;;;;;;;;;;;20.90;49.80;;;;;;484643;246;1427;-74
2022/09/02 05:14:48;;;;;;;;;;;20.90;49.50;;;;;;484911;246;1134;-73
2022/09/02 05:16:52;;;;;;;;;;;21.00;49.60;;;;;;484683;246;1153;-73
2022/09/02 05:18:50;;;;;;;;;;;21.10;49.50;;;;;;484700;245;1419;-73
2022/09/02 05:20:52;;;;;;;;;;;21.10;49.30;;;;;;484842;245;1146;-73
2022/09/02 05:22:54;;;;;;;;;;;20.90;49.60;;;;;;485326;246;1123;-73
2022/09/02 05:24:55;;;;;;;;;;;20.90;49.60;;;;;;484911;246;1406;-73
2022/09/02 05:26:56;;;;;;;;;;;20.80;49.80;;;;;;484881;246;2160;-73
2022/09/02 05:28:58;;;;;;;;;;;20.80;50.00;;;;;;484902;245;1192;-73
2022/09/02 05:30:58;;;;;;;;;;;20.70;50.10;;;;;;484817;246;1501;-73
2022/09/02 05:33:00;;;;;;;;;;;20.70;50.10;;;;;;484911;246;1169;-73
2022/09/02 05:35:01;;;;;;;;;;;20.70;50.30;;;;;;484916;246;1148;-73
2022/09/02 05:37:02;;;;;;;;;;;20.70;50.30;;;;;;484731;246;1114;-73
2022/09/02 05:39:05;;;;;;;;;;;20.70;50.20;;;;;;485035;246;1165;-73
2022/09/02 05:41:06;;;;;;;;;;;20.70;50.20;;;;;;484910;246;1293;-73
2022/09/02 05:43:08;;;;;;;;;;;20.70;50.20;;;;;;484171;246;1314;-73
2022/09/02 05:45:09;;;;;;;;;;;20.70;50.40;;;;;;484630;246;1093;-73
2022/09/02 05:47:10;;;;;;;;;;;20.60;50.40;;;;;;484660;246;2264;-73
2022/09/02 05:49:16;;;;;;;;;;;20.70;50.50;;;;;;484747;246;1236;-73
2022/09/02 05:51:13;;;;;;;;;;;20.60;50.60;;;;;;484561;246;1487;-73
2022/09/02 05:53:14;;;;;;;;;;;20.80;50.40;;;;;;484644;246;1161;-73
2022/09/02 05:55:16;;;;;;;;;;;20.90;50.10;;;;;;484716;246;1052;-73
2022/09/02 05:57:17;;;;;;;;;;;20.80;50.10;;;;;;484750;246;1061;-73
2022/09/02 05:59:19;;;;;;;;;;;20.80;50.00;;;;;;484487;246;1238;-73
2022/09/02 06:01:20;;;;;;;;;;;20.80;50.20;;;;;;484505;246;1319;-73
2022/09/02 06:03:21;;;;;;;;;;;20.70;50.20;;;;;;484816;246;1097;-74
2022/09/02 06:05:23;;;;;;;;;;;20.80;50.40;;;;;;484618;246;2155;-74
2022/09/02 06:07:24;;;;;;;;;;;20.70;50.50;;;;;;484596;246;1195;-73
2022/09/02 06:09:26;;;;;;;;;;;20.70;50.60;;;;;;484673;246;1144;-74
2022/09/02 06:11:27;;;;;;;;;;;20.60;50.70;;;;;;484588;246;1674;-73
2022/09/02 06:13:28;;;;;;;;;;;20.70;50.60;;;;;;484594;246;1497;-73
2022/09/02 06:15:29;;;;;;;;;;;20.70;50.70;;;;;;484669;246;1241;-73
2022/09/02 06:17:30;;;;;;;;;;;20.70;50.80;;;;;;484575;246;1135;-73
2022/09/02 06:19:32;;;;;;;;;;;20.70;50.50;;;;;;484517;246;1202;-73
2022/09/02 06:21:33;;;;;;;;;;;20.80;50.20;;;;;;484522;246;1114;-73
2022/09/02 06:23:34;;;;;;;;;;;20.80;50.30;;;;;;484674;246;1150;-73
2022/09/02 06:25:36;;;;;;;;;;;20.70;50.60;;;;;;484425;246;2167;-73
2022/09/02 06:27:37;;;;;;;;;;;20.70;50.80;;;;;;484434;246;1139;-73
2022/09/02 06:29:39;;;;;;;;;;;20.60;50.60;;;;;;484280;246;1175;-73
2022/09/02 06:31:40;;;;;;;;;;;20.70;50.70;;;;;;484463;246;1155;-73
2022/09/02 06:33:41;;;;;;;;;;;20.70;50.70;;;;;;484544;246;1153;-73
2022/09/02 06:35:42;;;;;;;;;;;20.60;50.80;;;;;;484650;246;1110;-73
2022/09/02 06:37:44;;;;;;;;;;;20.50;50.90;;;;;;484468;246;1158;-73
2022/09/02 06:39:47;;;;;;;;;;;20.50;50.90;;;;;;484519;246;1130;-73
2022/09/02 06:41:47;;;;;;;;;;;20.50;51.00;;;;;;484463;246;1407;-73
2022/09/02 06:43:48;;;;;;;;;;;20.50;51.10;;;;;;484481;246;1386;-73
2022/09/02 06:45:49;;;;;;;;;;;20.50;51.20;;;;;;484335;246;2190;-73
2022/09/02 06:47:52;;;;;;;;;;;20.60;51.00;;;;;;484532;246;1296;-73
2022/09/02 06:49:52;;;;;;;;;;;20.50;51.10;;;;;;484458;246;1614;-73
2022/09/02 06:51:54;;;;;;;;;;;20.50;51.20;;;;;;484369;246;1163;-73
2022/09/02 06:53:54;;;;;;;;;;;20.50;51.30;;;;;;484460;246;1024;-73
2022/09/02 06:55:56;;;;;;;;;;;20.50;51.40;;;;;;484347;246;1178;-73
2022/09/02 06:57:57;;;;;;;;;;;20.60;51.30;;;;;;484375;246;1225;-73
2022/09/02 06:59:58;;;;;;;;;;;20.50;51.30;;;;;;484475;246;1134;-73
2022/09/02 07:02:00;;;;;;;;;;;20.50;51.40;;;;;;484509;246;1117;-73
2022/09/02 07:06:28;;;;;;;;;;;20.50;51.50;;;;;;476453;246;2190;-73
2022/09/02 07:08:29;;;;;;;;;;;20.40;51.70;;;;;;484153;246;1105;-73
2022/09/02 07:10:31;;;;;;;;;;;20.50;51.60;;;;;;484156;246;1167;-73
2022/09/02 07:12:32;;;;;;;;;;;20.60;51.50;;;;;;484195;246;1141;-73
2022/09/02 07:14:33;;;;;;;;;;;20.70;51.30;;;;;;484445;246;1282;-73
2022/09/02 07:16:35;;;;;;;;;;;20.80;51.10;;;;;;484217;246;1281;-73
2022/09/02 07:18:36;;;;;;;;;;;20.90;51.00;;;;;;484344;246;1133;-73
2022/09/02 07:20:37;;;;;;;;;;;20.90;50.80;;;;;;484348;246;1234;-73
2022/09/02 07:22:38;;;;;;;;;;;20.90;51.00;;;;;;484259;246;1128;-73
2022/09/02 07:24:40;;;;;;;;;;;20.90;50.80;;;;;;484312;246;1164;-73
2022/09/02 07:26:41;;;;;;;;;;;21.00;50.70;;;;;;484396;246;2152;-73
2022/09/02 07:28:42;;;;;;;;;;;20.90;50.80;;;;;;484300;246;1128;-73
2022/09/02 07:30:44;;;;;;;;;;;20.80;50.90;;;;;;484398;246;1122;-73
2022/09/02 07:32:45;;;;;;;;;;;20.80;51.00;;;;;;484478;246;1157;-73
2022/09/02 07:34:46;;;;;;;;;;;20.90;51.10;;;;;;484369;246;1133;-73
2022/09/02 07:36:48;;;;;;;;;;;20.90;51.00;;;;;;484335;246;1138;-73
2022/09/02 07:38:49;;;;;;;;;;;20.90;51.00;;;;;;484374;246;1102;-73
2022/09/02 07:40:50;;;;;;;;;;;20.90;51.00;;;;;;484178;246;1205;-73
2022/09/02 07:42:52;;;;;;;;;;;20.90;51.00;;;;;;484269;246;1248;-73
2022/09/02 07:44:53;;;;;;;;;;;20.90;51.10;;;;;;484240;246;1184;-73
2022/09/02 07:46:55;;;;;;;;;;;20.90;51.10;;;;;;484332;246;2160;-73
2022/09/02 07:48:56;;;;;;;;;;;20.90;51.10;;;;;;484312;246;1143;-73
2022/09/02 07:50:57;;;;;;;;;;;21.00;51.20;;;;;;484323;246;1285;-73
2022/09/02 07:52:59;;;;;;;;;;;21.00;51.00;;;;;;484130;246;1187;-73
2022/09/02 07:55:01;;;;;;;;;;;20.90;51.10;;;;;;484423;246;1149;-73
2022/09/02 07:57:01;;;;;;;;;;;20.90;51.10;;;;;;484169;246;1419;-73
2022/09/02 07:59:03;;;;;;;;;;;21.00;51.20;;;;;;484406;246;1205;-73
2022/09/02 08:01:04;;;;;;;;;;;21.00;51.00;;;;;;484290;246;1118;-73
2022/09/02 08:03:06;;;;;;;;;;;21.00;51.00;;;;;;484313;246;1103;-73
2022/09/02 08:05:07;;;;;;;;;;;20.90;51.10;;;;;;484270;246;1138;-72
2022/09/02 08:07:08;;;;;;;;;;;20.80;51.40;;;;;;484334;246;2195;-73
2022/09/02 08:09:10;;;;;;;;;;;20.90;51.50;;;;;;484292;246;1508;-73
2022/09/02 08:11:12;;;;;;;;;;;20.90;51.50;;;;;;484402;246;1234;-73
2022/09/02 08:13:13;;;;;;;;;;;20.90;51.30;;;;;;484512;246;1089;-73
2022/09/02 08:15:14;;;;;;;;;;;20.90;51.40;;;;;;484591;246;1310;-73
2022/09/02 08:17:16;;;;;;;;;;;20.90;51.50;;;;;;484425;246;1296;-73
2022/09/02 08:19:17;;;;;;;;;;;20.90;51.40;;;;;;484531;246;1331;-73
2022/09/02 08:21:18;;;;;;;;;;;20.90;51.40;;;;;;484312;246;1302;-73
2022/09/02 08:23:20;;;;;;;;;;;20.90;51.30;;;;;;484376;246;1101;-73
2022/09/02 08:25:21;;;;;;;;;;;20.90;51.50;;;;;;484310;246;1183;-73
2022/09/02 08:27:22;;;;;;;;;;;20.90;51.50;;;;;;484326;246;2167;-73
2022/09/02 08:29:24;;;;;;;;;;;21.00;51.40;;;;;;484227;246;1407;-73
2022/09/02 08:31:25;;;;;;;;;;;21.10;51.20;;;;;;484013;246;1128;-73
2022/09/02 08:33:27;;;;;;;;;;;21.00;51.20;;;;;;484302;246;1273;-73
2022/09/02 08:35:28;;;;;;;;;;;21.10;51.10;;;;;;484142;246;1486;-73
2022/09/02 08:37:30;;;;;;;;;;;21.10;51.00;;;;;;484220;246;1276;-74
2022/09/02 08:39:31;;;;;;;;;;;21.10;51.10;;;;;;484008;246;1238;-74
2022/09/02 08:41:32;;;;;;;;;;;21.20;51.00;;;;;;484248;246;1238;-73
2022/09/02 08:43:38;;;;;;;;;;;21.30;50.80;;;;;;484407;246;1167;-73
2022/09/02 08:45:36;;;;;;;;;;;21.40;50.50;;;;;;484187;245;1268;-73
2022/09/02 08:47:36;;;;;;;;;;;21.30;50.50;;;;;;484119;246;2167;-73
2022/09/02 08:49:37;;;;;;;;;;;21.20;50.60;;;;;;484314;246;1220;-73
2022/09/02 08:51:39;;;;;;;;;;;21.20;50.60;;;;;;484323;246;1521;-73
2022/09/02 08:53:40;;;;;;;;;;;21.20;50.60;;;;;;484314;246;1238;-73
2022/09/02 08:55:42;;;;;;;;;;;21.20;50.60;;;;;;484208;246;1128;-73
2022/09/02 08:57:43;;;;;;;;;;;21.30;50.70;;;;;;484166;246;1262;-73
2022/09/02 08:59:44;;;;;;;;;;;21.40;50.20;;;;;;484291;246;1177;-73
2022/09/02 09:01:46;;;;;;;;;;;21.50;50.10;;;;;;484246;246;1096;-73
2022/09/02 09:03:47;;;;;;;;;;;21.40;50.00;;;;;;484392;246;1257;-73
2022/09/02 09:05:48;;;;;;;;;;;21.30;50.20;;;;;;484409;246;1320;-73
2022/09/02 09:07:50;;;;;;;;;;;21.20;50.60;;;;;;484252;246;2206;-73
2022/09/02 09:09:51;;;;;;;;;;;21.20;50.50;;;;;;484220;246;1091;-73
2022/09/02 09:11:53;;;;;;;;;;;21.30;50.50;;;;;;484334;246;1063;-73
2022/09/02 09:13:54;;;;;;;;;;;21.30;50.50;;;;;;484045;246;1517;-73
2022/09/02 09:15:55;;;;;;;;;;;21.30;50.50;;;;;;484236;246;1184;-73
2022/09/02 09:17:57;;;;;;;;;;;21.30;50.60;;;;;;484315;246;1095;-73
2022/09/02 09:19:59;;;;;;;;;;;21.30;50.40;;;;;;484203;246;1107;-73
2022/09/02 09:22:02;;;;;;;;;;;21.40;50.30;;;;;;484167;246;1673;-73
2022/09/02 09:24:01;;;;;;;;;;;21.40;50.20;;;;;;484089;246;1339;-73
2022/09/02 09:26:02;;;;;;;;;;;21.40;50.20;;;;;;484206;246;1258;-73
2022/09/02 09:28:03;;;;;;;;;;;21.40;50.00;;;;;;484315;246;2159;-73
2022/09/02 09:30:05;;;;;;;;;;;21.50;50.00;;;;;;484316;246;1106;-73
2022/09/02 09:32:06;;;;;;;;;;;21.50;49.80;;;;;;484176;246;1567;-73
2022/09/02 09:34:07;;;;;;;;;;;21.50;49.50;;;;;;484494;246;1136;-73
2022/09/02 09:36:10;;;;;;;;;;;21.40;49.80;;;;;;484569;246;1240;-73
2022/09/02 09:38:10;;;;;;;;;;;21.40;50.10;;;;;;484323;245;1460;-73
2022/09/02 09:40:11;;;;;;;;;;;21.40;49.90;;;;;;484361;246;1766;-73
2022/09/02 09:42:13;;;;;;;;;;;21.30;49.90;;;;;;484641;246;1114;-73
2022/09/02 09:44:14;;;;;;;;;;;21.40;49.90;;;;;;484641;246;1102;-73
2022/09/02 09:46:15;;;;;;;;;;;21.40;49.70;;;;;;484509;246;1112;-73
2022/09/02 09:48:17;;;;;;;;;;;21.20;49.90;;;;;;484513;246;2207;-73
2022/09/02 09:50:18;;;;;;;;;;;21.20;50.20;;;;;;484117;246;1116;-73
2022/09/02 09:52:19;;;;;;;;;;;21.10;50.30;;;;;;484363;246;1270;-73
2022/09/02 09:54:21;;;;;;;;;;;21.10;50.30;;;;;;484133;246;1320;-73
2022/09/02 09:56:22;;;;;;;;;;;21.10;50.40;;;;;;484261;246;1339;-73
2022/09/02 09:58:23;;;;;;;;;;;21.00;50.30;;;;;;484244;246;1161;-73
2022/09/02 10:00:25;;;;;;;;;;;21.10;50.20;;;;;;484277;246;1130;-73
2022/09/02 10:02:26;;;;;;;;;;;21.20;49.90;;;;;;484020;246;1193;-73
2022/09/02 10:04:27;;;;;;;;;;;21.30;49.60;;;;;;484644;246;1276;-73
2022/09/02 10:06:29;;;;;;;;;;;21.20;49.70;;;;;;484519;246;1164;-73
2022/09/02 10:08:30;;;;;;;;;;;21.20;49.90;;;;;;484589;246;2151;-73
2022/09/02 10:10:32;;;;;;;;;;;21.10;49.90;;;;;;484497;246;1177;-73
2022/09/02 10:12:33;;;;;;;;;;;21.20;49.80;;;;;;484583;246;1392;-73
2022/09/02 10:14:34;;;;;;;;;;;21.20;49.70;;;;;;484658;246;1145;-73
2022/09/02 10:16:35;;;;;;;;;;;21.30;49.70;;;;;;484577;246;1267;-73
2022/09/02 10:18:37;;;;;;;;;;;21.30;49.40;;;;;;484541;246;1136;-73
2022/09/02 10:20:38;;;;;;;;;;;21.20;49.60;;;;;;484559;246;1176;-73
2022/09/02 10:22:39;;;;;;;;;;;21.20;49.50;;;;;;484623;246;1175;-73
2022/09/02 10:24:41;;;;;;;;;;;21.10;49.60;;;;;;484628;246;1047;-73
2022/09/02 10:26:42;;;;;;;;;;;21.10;49.60;;;;;;484619;246;1192;-73
2022/09/02 10:28:44;;;;;;;;;;;21.10;49.90;;;;;;484680;246;2164;-73
2022/09/02 10:30:45;;;;;;;;;;;21.10;49.80;;;;;;484641;246;1180;-73
2022/09/02 10:32:47;;;;;;;;;;;21.10;49.70;;;;;;484639;246;1188;-73
2022/09/02 10:34:48;;;;;;;;;;;21.10;49.60;;;;;;484664;246;1069;-73
2022/09/02 10:36:49;;;;;;;;;;;21.20;49.40;;;;;;484672;246;1146;-73
2022/09/02 10:38:50;;;;;;;;;;;21.10;49.60;;;;;;484631;246;1137;-73
2022/09/02 10:40:52;;;;;;;;;;;21.20;49.50;;;;;;484633;246;1078;-73
2022/09/02 10:42:53;;;;;;;;;;;21.10;49.10;;;;;;484676;246;1134;-73
2022/09/02 10:44:55;;;;;;;;;;;21.20;49.00;;;;;;484324;246;1168;-73
2022/09/02 10:46:56;;;;;;;;;;;21.20;49.10;;;;;;484644;246;1181;-73
2022/09/02 10:48:58;;;;;;;;;;;21.20;49.20;;;;;;484572;246;2105;-73
2022/09/02 10:50:59;;;;;;;;;;;21.20;48.80;;;;;;484473;246;1420;-73
2022/09/02 10:53:00;;;;;;;;;;;21.20;48.90;;;;;;484615;246;1114;-73
2022/09/02 10:55:01;;;;;;;;;;;21.10;48.80;;;;;;484575;246;1517;-73
2022/09/02 10:57:03;;;;;;;;;;;21.10;48.50;;;;;;484597;246;1142;-73
2022/09/02 10:59:04;;;;;;;;;;;21.00;48.80;;;;;;484471;246;1181;-73
2022/09/02 11:01:05;;;;;;;;;;;21.00;48.80;;;;;;484554;246;1310;-73
2022/09/02 11:03:06;;;;;;;;;;;21.00;49.00;;;;;;484580;246;1122;-73
2022/09/02 11:05:08;;;;;;;;;;;21.10;48.90;;;;;;484625;246;1173;-73
2022/09/02 11:07:09;;;;;;;;;;;21.20;48.60;;;;;;484636;246;2159;-73
2022/09/02 11:09:11;;;;;;;;;;;21.20;48.40;;;;;;484593;246;1283;-73
2022/09/02 11:11:13;;;;;;;;;;;21.10;48.50;;;;;;483818;246;1198;-73
2022/09/02 11:13:13;;;;;;;;;;;21.10;48.40;;;;;;483894;246;1247;-73
2022/09/02 11:15:15;;;;;;;;;;;21.10;48.40;;;;;;484304;245;1260;-73
2022/09/02 11:17:16;;;;;;;;;;;21.20;48.40;;;;;;484477;246;1196;-73
2022/09/02 11:19:17;;;;;;;;;;;21.30;48.40;;;;;;484612;246;1223;-73
2022/09/02 11:21:19;;;;;;;;;;;21.30;48.20;;;;;;484327;246;1092;-73
2022/09/02 11:23:20;;;;;;;;;;;21.40;48.10;;;;;;484654;246;1118;-73
2022/09/02 11:25:21;;;;;;;;;;;21.40;48.00;;;;;;484650;246;1093;-73
2022/09/02 11:27:23;;;;;;;;;;;21.30;47.90;;;;;;484514;246;2144;-73
2022/09/02 11:29:24;;;;;;;;;;;21.20;48.30;;;;;;484682;246;1195;-73
2022/09/02 11:31:25;;;;;;;;;;;21.20;48.40;;;;;;484387;246;1097;-73
2022/09/02 11:33:27;;;;;;;;;;;21.20;48.20;;;;;;484650;246;1386;-73
2022/09/02 11:35:28;;;;;;;;;;;21.20;48.30;;;;;;484804;246;1103;-73
2022/09/02 11:37:29;;;;;;;;;;;21.40;47.90;;;;;;484613;246;1225;-73
2022/09/02 11:39:31;;;;;;;;;;;21.40;48.00;;;;;;484674;246;1143;-73
2022/09/02 11:41:32;;;;;;;;;;;21.30;47.70;;;;;;484629;246;1276;-73
2022/09/02 11:43:33;;;;;;;;;;;21.40;47.70;;;;;;484585;246;1343;-73
2022/09/02 11:45:35;;;;;;;;;;;21.40;47.70;;;;;;484754;246;1224;-73
2022/09/02 11:47:36;;;;;;;;;;;21.50;47.70;;;;;;484761;246;2148;-73
2022/09/02 11:49:37;;;;;;;;;;;21.60;47.20;;;;;;484788;246;1193;-73
2022/09/02 11:51:39;;;;;;;;;;;21.70;47.00;;;;;;484704;246;1170;-73
2022/09/02 11:53:40;;;;;;;;;;;21.80;46.90;;;;;;484715;246;1151;-73
2022/09/02 11:55:41;;;;;;;;;;;21.90;46.60;;;;;;484645;246;1441;-73
2022/09/02 11:57:43;;;;;;;;;;;21.90;46.40;;;;;;484673;246;1258;-73
2022/09/02 11:59:44;;;;;;;;;;;21.90;46.60;;;;;;484598;246;1125;-74